createdAt,value
2022-07-28T00:00:37.941Z,1.40
2022-07-28T00:03:04.756Z,1.40
2022-07-28T00:05:31.238Z,1.42
2022-07-28T00:07:57.703Z,1.23
2022-07-28T00:10:24.126Z,1.83
2022-07-28T00:12:50.622Z,1.33
2022-07-28T00:15:17.133Z,1.48
2022-07-28T00:17:43.560Z,1.23
2022-07-28T00:20:10.405Z,1.27
2022-07-28T00:22:44.674Z,1.58
2022-07-28T00:25:11.580Z,1.80
2022-07-28T00:27:38.479Z,1.60
2022-07-28T00:30:07.268Z,1.60
2022-07-28T00:32:33.866Z,1.58
2022-07-28T00:35:00.598Z,1.50
2022-07-28T00:37:28.825Z,1.70
2022-07-28T00:39:55.250Z,1.38
2022-07-28T00:42:21.843Z,1.80
2022-07-28T00:44:48.381Z,1.40
2022-07-28T00:47:14.996Z,1.60
2022-07-28T00:49:41.616Z,1.73
2022-07-28T00:52:09.913Z,1.70
2022-07-28T00:54:36.732Z,1.50
2022-07-28T00:57:03.364Z,1.70
2022-07-28T00:59:30.871Z,2.00
2022-07-28T01:02:00.676Z,1.80
2022-07-28T01:04:27.336Z,1.40
2022-07-28T01:06:53.641Z,1.30
2022-07-28T01:09:32.154Z,1.85
2022-07-28T01:12:28.489Z,1.50
2022-07-28T01:15:17.112Z,1.70
2022-07-28T01:17:57.089Z,1.45
2022-07-28T01:20:54.206Z,1.60
2022-07-28T01:23:50.492Z,1.55
2022-07-28T01:26:39.837Z,1.63
2022-07-28T01:29:24.034Z,1.48
2022-07-28T01:32:03.314Z,1.67
2022-07-28T01:34:33.522Z,1.63
2022-07-28T01:37:06.565Z,1.70
2022-07-28T01:39:35.399Z,1.60
2022-07-28T01:42:07.597Z,1.60
2022-07-28T01:44:38.320Z,1.67
2022-07-28T01:47:07.566Z,1.70
2022-07-28T01:49:35.995Z,1.83
2022-07-28T01:52:06.944Z,1.60
2022-07-28T01:54:34.718Z,1.67
2022-07-28T01:57:02.031Z,1.80
2022-07-28T01:59:29.799Z,1.80
2022-07-28T02:02:00.059Z,1.67
2022-07-28T02:04:28.089Z,1.60
2022-07-28T02:06:55.611Z,1.75
2022-07-28T02:09:22.924Z,1.80
2022-07-28T02:11:52.870Z,1.80
2022-07-28T02:14:22.002Z,1.95
2022-07-28T02:16:58.962Z,2.42
2022-07-28T02:19:26.271Z,1.90
2022-07-28T02:21:54.525Z,1.83
2022-07-28T02:24:26.449Z,1.83
2022-07-28T02:26:57.978Z,1.83
2022-07-28T02:29:49.346Z,2.00
2022-07-28T02:32:27.039Z,1.83
2022-07-28T02:35:04.693Z,2.10
2022-07-28T02:37:35.092Z,1.98
2022-07-28T02:40:02.554Z,2.05
2022-07-28T02:42:32.338Z,2.00
2022-07-28T02:44:59.897Z,1.92
2022-07-28T02:47:28.722Z,1.88
2022-07-28T02:49:57.648Z,2.15
2022-07-28T02:52:25.576Z,1.75
2022-07-28T02:54:52.430Z,1.67
2022-07-28T02:57:19.539Z,1.85
2022-07-28T02:59:46.477Z,2.00
2022-07-28T03:02:13.247Z,1.75
2022-07-28T03:04:59.039Z,1.90
2022-07-28T03:07:27.214Z,1.80
2022-07-28T03:09:54.127Z,1.50
2022-07-28T03:12:20.821Z,1.70
2022-07-28T03:14:47.338Z,1.65
2022-07-28T03:17:13.971Z,2.10
2022-07-28T03:19:40.670Z,1.90
2022-07-28T03:22:10.292Z,1.73
2022-07-28T03:24:40.406Z,1.60
2022-07-28T03:27:26.288Z,2.00
2022-07-28T03:30:06.916Z,1.85
2022-07-28T03:32:36.124Z,1.90
2022-07-28T03:35:05.284Z,2.13
2022-07-28T03:37:34.799Z,1.85
2022-07-28T03:40:01.632Z,2.20
2022-07-28T03:42:28.712Z,1.67
2022-07-28T03:44:55.777Z,1.73
2022-07-28T03:47:23.291Z,2.00
2022-07-28T03:49:50.203Z,2.08
2022-07-28T03:52:17.947Z,1.60
2022-07-28T03:54:44.936Z,1.65
2022-07-28T03:57:11.508Z,1.70
2022-07-28T03:59:38.033Z,1.98
2022-07-28T04:02:04.512Z,1.67
2022-07-28T04:04:31.112Z,1.83
2022-07-28T04:06:57.592Z,2.20
2022-07-28T04:09:24.098Z,1.90
2022-07-28T04:11:50.794Z,1.88
2022-07-28T04:14:17.963Z,1.70
2022-07-28T04:16:45.075Z,1.58
2022-07-28T04:19:11.731Z,2.75
2022-07-28T04:21:38.199Z,1.90
2022-07-28T04:24:05.125Z,2.30
2022-07-28T04:26:31.530Z,1.90
2022-07-28T04:28:58.034Z,2.10
2022-07-28T04:31:24.585Z,1.83
2022-07-28T04:33:51.106Z,2.10
2022-07-28T04:36:17.563Z,2.00
2022-07-28T04:38:44.033Z,2.60
2022-07-28T04:41:10.494Z,1.95
2022-07-28T04:43:38.762Z,2.60
2022-07-28T04:46:05.283Z,2.50
2022-07-28T04:48:31.795Z,2.60
2022-07-28T04:50:58.235Z,2.72
2022-07-28T04:53:24.767Z,2.95
2022-07-28T04:55:53.428Z,2.95
2022-07-28T04:58:22.646Z,2.58
2022-07-28T05:00:50.518Z,2.80
2022-07-28T05:03:17.903Z,2.67
2022-07-28T05:05:44.418Z,2.50
2022-07-28T05:08:15.666Z,2.60
2022-07-28T05:10:42.121Z,2.75
2022-07-28T05:13:09.538Z,2.80
2022-07-28T05:15:36.015Z,2.35
2022-07-28T05:18:02.496Z,2.50
2022-07-28T05:20:29.004Z,2.65
2022-07-28T05:22:57.300Z,2.78
2022-07-28T05:25:24.980Z,3.08
2022-07-28T05:27:52.544Z,2.50
2022-07-28T05:30:19.293Z,2.60
2022-07-28T05:32:45.804Z,2.55
2022-07-28T05:35:12.934Z,2.95
2022-07-28T05:37:39.491Z,3.17
2022-07-28T05:40:16.304Z,2.63
2022-07-28T05:42:43.372Z,3.22
2022-07-28T05:45:16.583Z,2.75
2022-07-28T05:47:52.801Z,3.00
2022-07-28T05:50:21.754Z,2.75
2022-07-28T05:52:49.104Z,2.65
2022-07-28T05:55:16.192Z,2.95
2022-07-28T05:57:42.716Z,2.97
2022-07-28T06:00:17.346Z,2.60
2022-07-28T06:02:49.123Z,2.47
2022-07-28T06:05:19.528Z,2.95
2022-07-28T06:07:47.515Z,2.72
2022-07-28T06:10:16.494Z,2.80
2022-07-28T06:12:48.530Z,2.35
2022-07-28T06:15:17.423Z,2.80
2022-07-28T06:17:43.960Z,2.58
2022-07-28T06:20:11.908Z,2.33
2022-07-28T06:22:48.723Z,2.00
2022-07-28T06:25:23.653Z,2.40
2022-07-28T06:27:51.704Z,2.05
2022-07-28T06:30:18.964Z,2.13
2022-07-28T06:32:45.940Z,1.90
2022-07-28T06:35:16.694Z,1.58
2022-07-28T06:37:44.328Z,2.35
2022-07-28T06:40:14.753Z,2.20
2022-07-28T06:42:42.037Z,1.83
2022-07-28T06:45:10.254Z,1.60
2022-07-28T06:47:48.627Z,1.50
2022-07-28T06:50:25.186Z,1.25
2022-07-28T06:52:56.715Z,1.42
2022-07-28T06:55:23.242Z,1.65
2022-07-28T06:57:49.832Z,1.40
2022-07-28T07:00:16.582Z,1.08
2022-07-28T07:02:43.103Z,1.33
2022-07-28T07:05:11.475Z,1.40
2022-07-28T07:07:42.824Z,1.10
2022-07-28T07:10:11.219Z,1.00
2022-07-28T07:12:37.774Z,0.98
2022-07-28T07:15:05.338Z,1.00
2022-07-28T07:17:31.761Z,1.05
2022-07-28T07:19:58.199Z,0.93
2022-07-28T07:22:24.647Z,0.80
2022-07-28T07:24:54.968Z,0.75
2022-07-28T07:27:23.495Z,0.90
2022-07-28T07:29:49.946Z,0.90
2022-07-28T07:32:16.357Z,1.00
2022-07-28T07:34:42.767Z,1.10
2022-07-28T07:37:13.542Z,1.10
2022-07-28T07:39:40.240Z,1.10
2022-07-28T07:42:06.903Z,1.00
2022-07-28T07:44:33.317Z,1.00
2022-07-28T07:46:59.848Z,1.30
2022-07-28T07:49:26.480Z,1.00
2022-07-28T07:52:12.191Z,1.02
2022-07-28T07:54:38.655Z,0.80
2022-07-28T07:57:05.257Z,0.98
2022-07-28T07:59:31.715Z,1.00
2022-07-28T08:01:58.339Z,1.17
2022-07-28T08:04:25.630Z,1.08
2022-07-28T08:06:52.772Z,0.95
2022-07-28T08:09:19.580Z,0.90
2022-07-28T08:11:46.057Z,1.00
2022-07-28T08:14:12.840Z,1.05
2022-07-28T08:16:39.705Z,0.90
2022-07-28T08:19:06.500Z,1.00
2022-07-28T08:21:35.512Z,0.88
2022-07-28T08:24:03.807Z,1.00
2022-07-28T08:26:30.243Z,1.00
2022-07-28T08:28:56.756Z,1.17
2022-07-28T08:31:23.375Z,1.08
2022-07-28T08:33:53.940Z,1.10
2022-07-28T08:36:21.757Z,1.42
2022-07-28T08:38:48.248Z,1.25
2022-07-28T08:41:23.245Z,1.10
2022-07-28T08:43:51.918Z,0.90
2022-07-28T08:46:20.070Z,0.90
2022-07-28T08:48:47.690Z,1.10
2022-07-28T08:51:15.174Z,1.13
2022-07-28T08:53:43.178Z,1.00
2022-07-28T08:56:14.749Z,0.90
2022-07-28T08:58:41.772Z,1.33
2022-07-28T09:01:10.744Z,1.52
2022-07-28T09:03:39.064Z,0.90
2022-07-28T09:06:05.683Z,1.00
2022-07-28T09:08:32.143Z,1.33
2022-07-28T09:10:58.681Z,0.98
2022-07-28T09:13:25.115Z,1.10
2022-07-28T09:15:51.595Z,0.93
2022-07-28T09:18:18.543Z,1.20
2022-07-28T09:20:45.612Z,1.30
2022-07-28T09:23:43.033Z,1.45
2022-07-28T09:26:10.974Z,0.90
2022-07-28T09:28:51.420Z,1.25
2022-07-28T09:31:18.830Z,1.20
2022-07-28T09:34:01.036Z,1.00
2022-07-28T09:36:29.103Z,1.00
2022-07-28T09:38:56.757Z,1.15
2022-07-28T09:41:23.631Z,1.33
2022-07-28T09:43:54.775Z,1.02
2022-07-28T09:46:24.014Z,1.20
2022-07-28T09:48:50.874Z,1.15
2022-07-28T09:51:32.041Z,1.10
2022-07-28T09:54:13.591Z,1.10
2022-07-28T09:56:44.544Z,1.17
2022-07-28T09:59:12.150Z,1.00
2022-07-28T10:02:02.446Z,1.00
2022-07-28T10:04:40.699Z,1.00
2022-07-28T10:07:17.015Z,1.10
2022-07-28T10:09:44.080Z,1.15
2022-07-28T10:12:14.240Z,1.00
2022-07-28T10:14:40.825Z,1.08
2022-07-28T10:17:07.576Z,1.33
2022-07-28T10:19:34.064Z,1.17
2022-07-28T10:22:01.011Z,1.05
2022-07-28T10:24:28.936Z,0.98
2022-07-28T10:26:56.814Z,1.10
2022-07-28T10:29:24.321Z,1.35
2022-07-28T10:31:54.338Z,1.08
2022-07-28T10:34:44.922Z,1.40
2022-07-28T10:37:18.718Z,1.10
2022-07-28T10:39:49.969Z,0.90
2022-07-28T10:42:16.690Z,0.88
2022-07-28T10:44:43.453Z,0.85
2022-07-28T10:47:18.676Z,1.00
2022-07-28T10:49:48.656Z,1.00
2022-07-28T10:52:37.686Z,1.15
2022-07-28T10:55:26.623Z,1.00
2022-07-28T10:58:25.191Z,1.25
2022-07-28T11:00:57.933Z,1.10
2022-07-28T11:03:36.730Z,1.30
2022-07-28T11:06:34.572Z,1.10
2022-07-28T11:09:21.795Z,1.02
2022-07-28T11:11:54.019Z,1.00
2022-07-28T11:14:26.948Z,1.33
2022-07-28T11:17:05.718Z,1.05
2022-07-28T11:20:06.812Z,0.82
2022-07-28T11:22:31.965Z,1.00
2022-07-28T11:25:21.098Z,1.33
2022-07-28T11:27:52.222Z,0.90
2022-07-28T11:30:19.100Z,1.20
2022-07-28T11:32:51.455Z,0.90
2022-07-28T11:38:02.891Z,0.85
2022-07-28T11:40:42.641Z,1.10
2022-07-28T11:43:22.085Z,1.00
2022-07-28T11:45:56.212Z,1.10
2022-07-28T11:48:23.355Z,0.93
2022-07-28T11:51:05.235Z,1.00
2022-07-28T11:53:41.826Z,1.00
2022-07-28T11:56:13.810Z,0.90
2022-07-28T11:58:41.252Z,1.00
2022-07-28T12:01:17.737Z,1.15
2022-07-28T12:03:54.262Z,1.20
2022-07-28T12:06:34.154Z,1.10
2022-07-28T12:09:04.132Z,1.30
2022-07-28T12:11:35.231Z,1.45
2022-07-28T12:14:06.521Z,1.13
2022-07-28T12:16:35.254Z,1.30
2022-07-28T12:19:02.375Z,0.85
2022-07-28T12:21:46.103Z,1.17
2022-07-28T12:24:23.688Z,0.90
2022-07-28T12:26:50.635Z,1.30
2022-07-28T12:29:17.856Z,1.10
2022-07-28T12:32:04.623Z,0.80
2022-07-28T12:34:34.852Z,1.10
2022-07-28T12:37:03.782Z,1.10
2022-07-28T12:39:32.382Z,1.00
2022-07-28T12:42:03.528Z,1.05
2022-07-28T12:44:44.211Z,0.90
2022-07-28T12:47:13.178Z,0.80
2022-07-28T12:49:43.136Z,1.05
2022-07-28T12:52:21.842Z,1.20
2022-07-28T12:54:55.043Z,0.90
2022-07-28T12:57:48.311Z,0.80
2022-07-28T13:00:18.884Z,1.10
2022-07-28T13:02:45.622Z,1.05
2022-07-28T13:05:27.170Z,1.00
2022-07-28T13:08:02.463Z,0.97
2022-07-28T13:10:30.251Z,1.20
2022-07-28T13:13:06.439Z,0.90
2022-07-28T13:15:33.137Z,1.23
2022-07-28T13:18:00.225Z,0.93
2022-07-28T13:20:26.726Z,1.00
2022-07-28T13:22:53.983Z,1.30
2022-07-28T13:25:21.679Z,1.10
2022-07-28T13:27:54.187Z,0.90
2022-07-28T13:30:22.055Z,0.75
2022-07-28T13:32:49.146Z,1.08
2022-07-28T13:35:15.782Z,1.08
2022-07-28T13:37:45.487Z,1.13
2022-07-28T13:40:12.477Z,1.13
2022-07-28T13:42:38.903Z,1.00
2022-07-28T13:45:05.685Z,1.05
2022-07-28T13:47:35.543Z,1.10
2022-07-28T13:50:06.344Z,1.08
2022-07-28T13:52:35.248Z,0.90
2022-07-28T13:55:05.903Z,1.13
2022-07-28T13:57:35.060Z,1.23
2022-07-28T14:00:06.698Z,0.95
2022-07-28T14:02:34.343Z,1.00
2022-07-28T14:05:00.804Z,1.00
2022-07-28T14:07:27.286Z,0.90
2022-07-28T14:09:53.725Z,1.10
2022-07-28T14:12:20.621Z,0.77
2022-07-28T14:14:48.405Z,1.17
2022-07-28T14:17:42.885Z,1.30
2022-07-28T14:20:01.920Z,1.30
2022-07-28T14:22:28.423Z,0.93
2022-07-28T14:24:54.867Z,1.33
2022-07-28T14:27:24.624Z,1.38
2022-07-28T14:29:53.682Z,1.40
2022-07-28T14:32:20.187Z,1.23
2022-07-28T14:34:46.702Z,0.90
2022-07-28T14:37:14.277Z,1.00
2022-07-28T14:39:42.119Z,1.48
2022-07-28T14:42:08.631Z,0.80
2022-07-28T14:44:35.206Z,0.93
2022-07-28T14:47:02.047Z,1.05
2022-07-28T14:49:28.973Z,1.08
2022-07-28T14:51:57.354Z,1.23
2022-07-28T14:54:23.827Z,1.30
2022-07-28T14:56:50.337Z,1.27
2022-07-28T14:59:16.762Z,1.10
2022-07-28T15:01:43.461Z,1.30
2022-07-28T15:04:12.380Z,1.00
2022-07-28T15:06:39.609Z,1.67
2022-07-28T15:09:06.845Z,1.60
2022-07-28T15:11:33.295Z,1.40
2022-07-28T15:13:59.776Z,1.23
2022-07-28T15:16:26.252Z,1.13
2022-07-28T15:18:53.260Z,1.13
2022-07-28T15:21:19.778Z,1.02
2022-07-28T15:23:46.272Z,1.00
2022-07-28T15:26:12.748Z,0.93
2022-07-28T15:28:39.452Z,1.20
2022-07-28T15:31:08.492Z,1.05
2022-07-28T15:33:45.333Z,1.25
2022-07-28T15:36:14.398Z,1.35
2022-07-28T15:38:41.044Z,1.20
2022-07-28T15:41:07.629Z,1.10
2022-07-28T15:43:34.040Z,0.90
2022-07-28T15:46:05.559Z,0.95
2022-07-28T15:48:32.056Z,1.23
2022-07-28T15:50:58.472Z,1.00
2022-07-28T15:53:25.261Z,1.13
2022-07-28T15:55:52.091Z,1.00
2022-07-28T15:58:19.311Z,1.10
2022-07-28T16:00:46.011Z,1.15
2022-07-28T16:03:12.876Z,1.00
2022-07-28T16:05:39.367Z,1.63
2022-07-28T16:08:05.872Z,1.20
2022-07-28T16:10:32.473Z,1.10
2022-07-28T16:12:58.978Z,1.20
2022-07-28T16:15:26.944Z,1.25
2022-07-28T16:17:54.435Z,1.33
2022-07-28T16:20:20.936Z,1.10
2022-07-28T16:22:47.589Z,1.05
2022-07-28T16:25:16.948Z,1.25
2022-07-28T16:27:44.424Z,1.27
2022-07-28T16:30:11.551Z,1.10
2022-07-28T16:32:38.630Z,1.20
2022-07-28T16:35:06.615Z,1.15
2022-07-28T16:37:33.665Z,0.93
2022-07-28T16:40:00.173Z,1.48
2022-07-28T16:42:26.632Z,1.10
2022-07-28T16:44:53.097Z,1.10
2022-07-28T16:47:19.516Z,1.00
2022-07-28T16:49:46.450Z,1.67
2022-07-28T16:52:13.834Z,1.70
2022-07-28T16:54:40.373Z,1.20
2022-07-28T16:57:07.263Z,1.13
2022-07-28T16:59:37.041Z,1.02
2022-07-28T17:02:14.521Z,1.10
2022-07-28T17:04:41.016Z,0.90
2022-07-28T17:07:08.235Z,1.38
2022-07-28T17:09:34.811Z,1.33
2022-07-28T17:12:01.255Z,1.40
2022-07-28T17:14:27.690Z,1.20
2022-07-28T17:16:54.169Z,1.17
2022-07-28T17:19:22.006Z,1.35
2022-07-28T17:21:48.481Z,1.77
2022-07-28T17:24:15.395Z,1.80
2022-07-28T17:29:28.535Z,1.67
2022-07-28T17:31:54.929Z,1.48
2022-07-28T17:34:21.395Z,1.30
2022-07-28T17:36:48.125Z,1.30
2022-07-28T17:39:14.619Z,1.15
2022-07-28T17:41:41.637Z,0.95
2022-07-28T17:44:08.222Z,1.20
2022-07-28T17:46:35.105Z,1.00
2022-07-28T17:49:02.183Z,1.40
2022-07-28T17:51:28.841Z,1.10
2022-07-28T17:53:55.664Z,1.20
2022-07-28T17:56:22.220Z,1.30
2022-07-28T17:58:48.658Z,1.30
2022-07-28T18:01:15.401Z,1.20
2022-07-28T18:03:59.114Z,1.42
2022-07-28T18:06:35.257Z,1.35
2022-07-28T18:09:07.212Z,1.48
2022-07-28T18:14:28.460Z,1.25
2022-07-28T18:16:55.279Z,1.20
2022-07-28T18:19:21.809Z,1.40
2022-07-28T18:21:48.522Z,1.00
2022-07-28T18:24:15.352Z,1.15
2022-07-28T18:26:41.984Z,1.48
2022-07-28T18:29:08.563Z,1.20
2022-07-28T18:31:35.029Z,1.33
2022-07-28T18:34:01.618Z,1.55
2022-07-28T18:36:28.034Z,1.33
2022-07-28T18:38:54.649Z,1.17
2022-07-28T18:41:21.082Z,1.38
2022-07-28T18:43:47.502Z,1.23
2022-07-28T18:46:14.103Z,1.17
2022-07-28T18:48:40.659Z,1.10
2022-07-28T18:51:07.143Z,0.90
2022-07-28T18:53:33.644Z,1.20
2022-07-28T18:56:00.085Z,1.10
2022-07-28T18:58:26.523Z,1.30
2022-07-28T19:00:53.007Z,1.10
2022-07-28T19:03:19.491Z,1.38
2022-07-28T19:05:46.578Z,1.20
2022-07-28T19:08:13.226Z,1.23
2022-07-28T19:10:39.699Z,1.30
2022-07-28T19:13:12.344Z,1.30
2022-07-28T19:15:40.370Z,1.02
2022-07-28T19:18:09.951Z,1.20
2022-07-28T19:20:39.749Z,1.40
2022-07-28T19:23:06.435Z,1.05
2022-07-28T19:25:35.559Z,1.30
2022-07-28T19:28:02.343Z,1.17
2022-07-28T19:30:30.283Z,1.23
2022-07-28T19:32:56.739Z,1.55
2022-07-28T19:35:23.179Z,1.45
2022-07-28T19:37:50.754Z,1.08
2022-07-28T19:40:18.263Z,1.77
2022-07-28T19:42:44.686Z,1.30
2022-07-28T19:45:11.149Z,1.48
2022-07-28T19:47:39.044Z,1.50
2022-07-28T19:50:05.664Z,1.40
2022-07-28T19:52:32.837Z,1.40
2022-07-28T19:54:59.284Z,1.70
2022-07-28T19:57:26.593Z,1.80
2022-07-28T19:59:53.060Z,1.33
2022-07-28T20:02:19.603Z,1.52
2022-07-28T20:04:46.379Z,1.63
2022-07-28T20:07:12.904Z,1.48
2022-07-28T20:09:39.732Z,1.73
2022-07-28T20:12:07.825Z,1.70
2022-07-28T20:14:36.080Z,1.13
2022-07-28T20:17:02.791Z,1.40
2022-07-28T20:19:30.089Z,1.48
2022-07-28T20:21:57.145Z,1.75
2022-07-28T20:24:23.958Z,1.10
2022-07-28T20:26:50.444Z,1.70
2022-07-28T20:29:16.949Z,1.42
2022-07-28T20:31:43.430Z,1.63
2022-07-28T20:34:12.643Z,1.65
2022-07-28T20:36:39.544Z,1.77
2022-07-28T20:39:27.441Z,1.52
2022-07-28T20:41:52.587Z,1.67
2022-07-28T20:44:29.935Z,1.50
2022-07-28T20:47:00.678Z,1.42
2022-07-28T20:49:30.049Z,1.20
2022-07-28T20:51:57.743Z,1.55
2022-07-28T20:54:25.227Z,1.35
2022-07-28T20:56:51.833Z,1.20
2022-07-28T20:59:18.348Z,1.10
2022-07-28T21:01:44.818Z,1.30
2022-07-28T21:04:11.917Z,1.20
2022-07-28T21:06:39.066Z,1.20
2022-07-28T21:09:18.121Z,1.60
2022-07-28T21:11:44.567Z,1.27
2022-07-28T21:14:11.048Z,1.20
2022-07-28T21:16:37.603Z,0.88
2022-07-28T21:19:05.598Z,1.50
2022-07-28T21:21:32.004Z,1.50
2022-07-28T21:23:58.412Z,1.17
2022-07-28T21:26:24.970Z,1.25
2022-07-28T21:29:10.016Z,1.10
2022-07-28T21:31:58.493Z,1.10
2022-07-28T21:34:25.892Z,1.13
2022-07-28T21:36:52.310Z,0.93
2022-07-28T21:39:18.746Z,0.90
2022-07-28T21:41:45.237Z,1.10
2022-07-28T21:44:12.780Z,1.10
2022-07-28T21:46:39.636Z,1.35
2022-07-28T21:49:06.270Z,1.23
2022-07-28T21:51:32.824Z,1.40
2022-07-28T21:54:00.183Z,1.15
2022-07-28T21:56:30.110Z,0.98
2022-07-28T21:58:57.009Z,1.17
2022-07-28T22:01:24.039Z,1.20
2022-07-28T22:03:50.915Z,0.98
2022-07-28T22:06:17.524Z,1.33
2022-07-28T22:08:43.945Z,1.20
2022-07-28T22:11:10.474Z,1.30
2022-07-28T22:13:36.903Z,1.10
2022-07-28T22:16:03.466Z,1.20
2022-07-28T22:18:29.961Z,0.93
2022-07-28T22:20:56.440Z,1.25
2022-07-28T22:23:29.299Z,1.10
2022-07-28T22:25:56.386Z,1.30
2022-07-28T22:28:29.639Z,1.23
2022-07-28T22:30:56.887Z,1.00
2022-07-28T22:33:23.343Z,1.13
2022-07-28T22:35:49.794Z,1.50
2022-07-28T22:38:16.277Z,1.10
2022-07-28T22:40:42.765Z,1.20
2022-07-28T22:43:09.223Z,1.30
2022-07-28T22:45:49.363Z,1.55
2022-07-28T22:48:17.602Z,1.30
2022-07-28T22:50:44.429Z,1.23
2022-07-28T22:53:10.873Z,1.10
2022-07-28T22:55:37.307Z,1.20
2022-07-28T22:58:05.612Z,1.33
2022-07-28T23:00:32.387Z,1.38
2022-07-28T23:03:00.278Z,1.25
2022-07-28T23:05:28.600Z,1.40
2022-07-28T23:07:57.394Z,1.42
2022-07-28T23:10:24.200Z,1.40
2022-07-28T23:12:50.687Z,1.10
2022-07-28T23:15:17.175Z,1.25
2022-07-28T23:17:43.658Z,1.10
2022-07-28T23:20:10.564Z,1.27
2022-07-28T23:22:37.908Z,1.17
2022-07-28T23:25:05.430Z,1.35
2022-07-28T23:27:31.877Z,1.10
2022-07-28T23:29:58.304Z,1.17
2022-07-28T23:32:24.810Z,1.05
2022-07-28T23:34:51.292Z,1.52
2022-07-28T23:37:17.871Z,1.40
2022-07-28T23:39:44.300Z,1.38
2022-07-28T23:42:10.761Z,1.50
2022-07-28T23:44:38.012Z,1.17
2022-07-28T23:47:04.495Z,1.20
2022-07-28T23:49:31.114Z,1.33
2022-07-28T23:51:57.763Z,1.38
2022-07-28T23:54:24.231Z,1.20
2022-07-28T23:56:52.227Z,1.20
2022-07-28T23:59:18.673Z,1.00
